createdAt,value
2023-01-17T00:02:08.824Z,61.48
2023-01-17T00:04:54.599Z,61.58
2023-01-17T00:07:42.962Z,61.83
2023-01-17T00:10:14.186Z,62.18
2023-01-17T00:12:47.818Z,61.96
2023-01-17T00:15:16.693Z,62.43
2023-01-17T00:17:45.031Z,62.35
2023-01-17T00:20:32.733Z,62.15
2023-01-17T00:23:20.081Z,62.16
2023-01-17T00:26:06.702Z,62.17
2023-01-17T00:28:36.076Z,62.31
2023-01-17T00:31:04.407Z,62.45
2023-01-17T00:33:31.515Z,62.63
2023-01-17T00:35:59.355Z,62.71
2023-01-17T00:38:29.774Z,62.85
2023-01-17T00:41:02.190Z,62.75
2023-01-17T00:43:48.465Z,63.27
2023-01-17T00:46:34.391Z,63.30
2023-01-17T00:49:20.133Z,63.13
2023-01-17T00:52:05.580Z,63.22
2023-01-17T00:54:52.388Z,63.40
2023-01-17T00:57:38.374Z,63.63
2023-01-17T01:00:25.113Z,63.60
2023-01-17T01:03:10.477Z,63.82
2023-01-17T01:05:57.120Z,63.76
2023-01-17T01:08:44.874Z,63.75
2023-01-17T01:11:33.826Z,63.84
2023-01-17T01:14:20.254Z,63.75
2023-01-17T01:17:06.141Z,63.78
2023-01-17T01:19:51.796Z,63.66
2023-01-17T01:22:37.591Z,63.53
2023-01-17T01:25:23.752Z,63.44
2023-01-17T01:28:10.657Z,63.68
2023-01-17T01:30:56.575Z,63.85
2023-01-17T01:33:23.668Z,64.08
2023-01-17T01:35:53.870Z,64.13
2023-01-17T01:38:24.426Z,63.80
2023-01-17T01:40:54.725Z,63.65
2023-01-17T01:43:42.892Z,63.20
2023-01-17T01:46:14.567Z,63.51
2023-01-17T01:48:47.394Z,63.27
2023-01-17T01:51:20.579Z,63.24
2023-01-17T01:53:53.573Z,63.34
2023-01-17T01:56:24.361Z,62.80
2023-01-17T01:58:55.165Z,62.50
2023-01-17T02:01:23.480Z,62.76
2023-01-17T02:03:51.993Z,62.65
2023-01-17T02:06:30.540Z,62.43
2023-01-17T02:09:02.969Z,62.60
2023-01-17T02:11:32.001Z,62.56
2023-01-17T02:14:01.880Z,62.41
2023-01-17T02:16:39.492Z,62.48
2023-01-17T02:19:30.982Z,62.41
2023-01-17T02:22:14.046Z,61.71
2023-01-17T02:25:02.298Z,61.83
2023-01-17T02:27:39.068Z,62.02
2023-01-17T02:30:31.635Z,61.96
2023-01-17T02:33:18.927Z,61.72
2023-01-17T02:35:58.085Z,61.90
2023-01-17T02:38:35.210Z,61.50
2023-01-17T02:41:07.953Z,62.00
2023-01-17T02:43:38.383Z,61.44
2023-01-17T02:46:09.832Z,61.42
2023-01-17T02:48:39.721Z,61.36
2023-01-17T02:51:39.964Z,60.18
2023-01-17T02:54:33.206Z,60.42
2023-01-17T02:57:14.805Z,60.08
2023-01-17T02:59:54.415Z,60.25
2023-01-17T03:02:32.054Z,60.33
2023-01-17T03:05:05.364Z,60.47
2023-01-17T03:07:35.164Z,60.30
2023-01-17T03:10:06.649Z,60.36
2023-01-17T03:12:38.864Z,60.08
2023-01-17T03:15:11.491Z,59.75
2023-01-17T03:17:44.039Z,59.96
2023-01-17T03:20:13.149Z,59.97
2023-01-17T03:22:41.631Z,59.88
2023-01-17T03:25:10.279Z,59.94
2023-01-17T03:27:38.759Z,59.84
2023-01-17T03:30:08.174Z,59.66
2023-01-17T03:32:36.566Z,59.35
2023-01-17T03:35:07.132Z,59.19
2023-01-17T03:37:35.413Z,59.32
2023-01-17T03:40:03.743Z,59.08
2023-01-17T03:42:31.971Z,58.95
2023-01-17T03:45:00.237Z,58.51
2023-01-17T03:47:28.521Z,58.64
2023-01-17T03:49:56.800Z,58.19
2023-01-17T03:52:26.437Z,58.39
2023-01-17T03:54:54.774Z,58.24
2023-01-17T03:57:23.014Z,58.03
2023-01-17T03:59:51.315Z,57.71
2023-01-17T04:02:19.873Z,57.59
2023-01-17T04:04:48.190Z,57.50
2023-01-17T04:07:16.461Z,57.55
2023-01-17T04:09:46.174Z,57.42
2023-01-17T04:12:14.506Z,57.34
2023-01-17T04:14:42.738Z,57.12
2023-01-17T04:17:13.133Z,57.07
2023-01-17T04:19:42.234Z,56.72
2023-01-17T04:22:10.487Z,56.77
2023-01-17T04:24:38.760Z,56.68
2023-01-17T04:27:09.205Z,56.52
2023-01-17T04:29:37.445Z,56.51
2023-01-17T04:32:06.240Z,56.48
2023-01-17T04:34:34.499Z,56.50
2023-01-17T04:37:02.786Z,56.49
2023-01-17T04:39:31.051Z,56.45
2023-01-17T04:41:59.339Z,56.70
2023-01-17T04:44:28.954Z,56.40
2023-01-17T04:46:57.281Z,56.69
2023-01-17T04:49:25.513Z,56.84
2023-01-17T04:51:53.811Z,56.95
2023-01-17T04:54:22.149Z,57.16
2023-01-17T04:56:50.417Z,57.58
2023-01-17T04:59:18.755Z,57.81
2023-01-17T05:01:49.531Z,57.84
2023-01-17T05:04:18.031Z,57.92
2023-01-17T05:06:46.603Z,57.82
2023-01-17T05:09:15.122Z,57.88
2023-01-17T05:11:43.513Z,57.89
2023-01-17T05:14:12.378Z,58.03
2023-01-17T05:16:40.643Z,58.21
2023-01-17T05:19:10.583Z,58.38
2023-01-17T05:21:39.192Z,58.60
2023-01-17T05:24:08.622Z,58.60
2023-01-17T05:26:37.176Z,58.60
2023-01-17T05:29:05.451Z,58.83
2023-01-17T05:31:34.137Z,58.91
2023-01-17T05:34:02.405Z,59.09
2023-01-17T05:36:32.247Z,59.01
2023-01-17T05:39:00.815Z,58.83
2023-01-17T05:41:29.386Z,58.77
2023-01-17T05:43:57.899Z,58.84
2023-01-17T05:46:26.307Z,58.58
2023-01-17T05:48:54.607Z,58.45
2023-01-17T05:51:22.968Z,58.08
2023-01-17T05:53:52.633Z,57.66
2023-01-17T05:56:21.043Z,57.76
2023-01-17T05:58:49.443Z,57.84
2023-01-17T06:01:17.950Z,57.73
2023-01-17T06:03:46.439Z,58.08
2023-01-17T06:06:15.047Z,58.32
2023-01-17T06:08:43.299Z,57.76
2023-01-17T06:11:13.084Z,57.89
2023-01-17T06:13:41.510Z,57.69
2023-01-17T06:16:10.311Z,57.69
2023-01-17T06:18:38.596Z,57.58
2023-01-17T06:21:07.364Z,56.74
2023-01-17T06:23:35.753Z,56.30
2023-01-17T06:26:04.865Z,55.09
2023-01-17T06:28:34.654Z,54.52
2023-01-17T06:31:07.881Z,53.96
2023-01-17T06:33:36.307Z,53.81
2023-01-17T06:36:05.473Z,54.22
2023-01-17T06:38:34.633Z,54.30
2023-01-17T06:41:05.400Z,55.13
2023-01-17T06:43:35.271Z,55.88
2023-01-17T06:46:03.754Z,56.00
2023-01-17T06:48:32.569Z,55.97
2023-01-17T06:51:00.984Z,56.10
2023-01-17T06:53:29.461Z,55.88
2023-01-17T06:55:58.538Z,56.17
2023-01-17T06:58:27.020Z,56.21
2023-01-17T07:00:56.871Z,56.22
2023-01-17T07:03:27.337Z,56.13
2023-01-17T07:05:56.530Z,56.29
2023-01-17T07:08:24.630Z,56.16
2023-01-17T07:10:52.657Z,55.92
2023-01-17T07:13:20.714Z,56.07
2023-01-17T07:15:48.840Z,56.12
2023-01-17T07:18:20.694Z,56.01
2023-01-17T07:20:49.980Z,56.31
2023-01-17T07:23:18.405Z,56.49
2023-01-17T07:25:52.660Z,56.75
2023-01-17T07:28:20.843Z,57.08
2023-01-17T07:30:49.106Z,57.19
2023-01-17T07:33:18.706Z,57.36
2023-01-17T07:35:47.367Z,57.26
2023-01-17T07:38:17.286Z,56.86
2023-01-17T07:40:46.211Z,56.60
2023-01-17T07:43:14.906Z,56.44
2023-01-17T07:45:43.923Z,56.40
2023-01-17T07:48:13.091Z,56.85
2023-01-17T07:50:42.614Z,56.77
2023-01-17T07:53:11.253Z,56.93
2023-01-17T07:55:39.361Z,57.29
2023-01-17T07:58:07.428Z,57.24
2023-01-17T08:00:35.461Z,57.22
2023-01-17T08:03:03.655Z,57.41
2023-01-17T08:05:31.893Z,57.27
2023-01-17T08:08:01.312Z,57.10
2023-01-17T08:10:29.343Z,56.92
2023-01-17T08:12:57.341Z,57.16
2023-01-17T08:15:26.664Z,57.16
2023-01-17T08:17:54.694Z,56.95
2023-01-17T08:20:23.402Z,57.09
2023-01-17T08:22:54.648Z,56.90
2023-01-17T08:25:24.989Z,56.90
2023-01-17T08:27:57.464Z,56.80
2023-01-17T08:30:25.840Z,57.02
2023-01-17T08:32:53.984Z,56.74
2023-01-17T08:35:22.787Z,56.71
2023-01-17T08:37:55.632Z,56.72
2023-01-17T08:40:25.514Z,56.69
2023-01-17T08:42:56.897Z,56.29
2023-01-17T08:45:25.153Z,56.19
2023-01-17T08:47:53.676Z,55.91
2023-01-17T08:50:21.922Z,56.00
2023-01-17T08:52:50.709Z,55.80
2023-01-17T08:55:19.074Z,55.93
2023-01-17T08:57:48.484Z,55.68
2023-01-17T09:00:17.368Z,55.74
2023-01-17T09:02:45.416Z,55.76
2023-01-17T09:05:13.592Z,55.58
2023-01-17T09:07:41.660Z,55.38
2023-01-17T09:10:10.889Z,55.03
2023-01-17T09:12:40.361Z,54.48
2023-01-17T09:15:10.655Z,54.54
2023-01-17T09:17:38.685Z,54.64
2023-01-17T09:20:08.076Z,54.82
2023-01-17T09:22:37.743Z,54.49
2023-01-17T09:25:06.764Z,54.40
2023-01-17T09:27:34.802Z,54.13
2023-01-17T09:30:02.896Z,54.32
2023-01-17T09:32:32.279Z,54.10
2023-01-17T09:35:00.809Z,53.12
2023-01-17T09:37:29.056Z,52.41
2023-01-17T09:39:57.112Z,52.94
2023-01-17T09:42:34.486Z,52.75
2023-01-17T09:45:02.654Z,53.21
2023-01-17T09:47:39.323Z,51.08
2023-01-17T09:50:26.349Z,50.62
2023-01-17T09:53:00.677Z,48.66
2023-01-17T09:55:32.976Z,47.07
2023-01-17T09:58:05.925Z,45.37
2023-01-17T10:00:43.769Z,46.44
2023-01-17T10:03:38.719Z,45.53
2023-01-17T10:06:42.283Z,45.06
2023-01-17T10:09:40.098Z,43.94
2023-01-17T10:12:21.068Z,41.84
2023-01-17T10:15:03.115Z,42.16
2023-01-17T10:17:41.836Z,42.26
2023-01-17T10:20:25.737Z,41.53
2023-01-17T10:23:18.516Z,40.59
2023-01-17T10:25:49.686Z,41.75
2023-01-17T10:28:19.621Z,40.71
2023-01-17T10:30:50.888Z,40.45
2023-01-17T10:33:21.812Z,40.47
2023-01-17T10:35:57.029Z,39.97
2023-01-17T10:38:32.759Z,39.17
2023-01-17T10:41:05.809Z,39.23
2023-01-17T10:43:45.484Z,38.98
2023-01-17T10:46:18.496Z,37.46
2023-01-17T10:48:49.571Z,38.84
2023-01-17T10:51:44.865Z,38.86
2023-01-17T10:54:23.699Z,39.28
2023-01-17T10:56:51.762Z,38.27
2023-01-17T10:59:28.579Z,38.17
2023-01-17T11:01:56.686Z,39.95
2023-01-17T11:04:32.233Z,40.84
2023-01-17T11:07:16.744Z,42.66
2023-01-17T11:09:46.597Z,41.01
2023-01-17T11:12:28.965Z,41.86
2023-01-17T11:15:06.061Z,40.00
2023-01-17T11:17:37.321Z,39.90
2023-01-17T11:20:17.117Z,40.89
2023-01-17T11:23:02.463Z,41.96
2023-01-17T11:25:34.410Z,43.42
2023-01-17T11:28:05.460Z,43.11
2023-01-17T11:30:34.343Z,41.88
2023-01-17T11:33:06.168Z,42.96
2023-01-17T11:35:36.697Z,42.38
2023-01-17T11:38:12.742Z,41.99
2023-01-17T11:40:43.038Z,42.28
2023-01-17T11:43:23.837Z,42.48
2023-01-17T11:46:07.144Z,43.05
2023-01-17T11:48:37.544Z,42.74
2023-01-17T11:51:18.536Z,40.79
2023-01-17T11:53:49.292Z,40.55
2023-01-17T11:56:30.658Z,39.17
2023-01-17T11:59:27.400Z,37.95
2023-01-17T12:02:31.803Z,35.95
2023-01-17T12:05:10.133Z,35.72
2023-01-17T12:07:48.992Z,36.11
2023-01-17T12:10:24.634Z,35.47
2023-01-17T12:13:18.234Z,35.35
2023-01-17T12:16:00.006Z,34.72
2023-01-17T12:18:37.341Z,34.70
2023-01-17T12:21:18.022Z,35.18
2023-01-17T12:24:00.161Z,35.75
2023-01-17T12:26:36.261Z,35.28
2023-01-17T12:29:43.899Z,35.57
2023-01-17T12:32:25.878Z,35.67
2023-01-17T12:34:58.459Z,37.03
2023-01-17T12:37:34.566Z,36.75
2023-01-17T12:40:06.486Z,37.36
2023-01-17T12:42:42.653Z,37.10
2023-01-17T12:45:14.723Z,37.21
2023-01-17T12:47:46.432Z,37.53
2023-01-17T12:50:22.627Z,36.73
2023-01-17T12:53:00.224Z,36.13
2023-01-17T12:55:36.952Z,35.99
2023-01-17T12:58:13.794Z,36.06
2023-01-17T13:00:44.701Z,35.66
2023-01-17T13:03:20.358Z,35.83
2023-01-17T13:05:48.878Z,35.21
2023-01-17T13:08:25.964Z,35.87
2023-01-17T13:10:58.719Z,36.11
2023-01-17T13:13:30.071Z,34.23
2023-01-17T13:16:03.275Z,34.42
2023-01-17T13:18:33.297Z,34.53
2023-01-17T13:21:14.839Z,35.41
2023-01-17T13:24:06.023Z,36.06
2023-01-17T13:27:01.415Z,36.10
2023-01-17T13:29:41.212Z,35.37
2023-01-17T13:32:18.572Z,35.65
2023-01-17T13:35:04.152Z,35.44
2023-01-17T13:37:53.994Z,35.42
2023-01-17T13:40:30.428Z,35.69
2023-01-17T13:43:00.817Z,35.81
2023-01-17T13:45:32.160Z,35.67
2023-01-17T13:48:28.982Z,34.86
2023-01-17T13:50:58.525Z,35.31
2023-01-17T13:53:48.674Z,35.29
2023-01-17T13:56:26.352Z,36.27
2023-01-17T13:59:02.577Z,36.29
2023-01-17T14:01:54.412Z,36.43
2023-01-17T14:04:23.683Z,37.92
2023-01-17T14:07:01.123Z,39.59
2023-01-17T14:09:41.423Z,40.36
2023-01-17T14:12:33.692Z,40.39
2023-01-17T14:15:03.709Z,40.14
2023-01-17T14:17:55.812Z,39.44
2023-01-17T14:20:52.266Z,40.26
2023-01-17T14:23:48.598Z,42.02
2023-01-17T14:26:43.139Z,42.12
2023-01-17T14:29:48.604Z,41.33
2023-01-17T14:32:19.652Z,41.20
2023-01-17T14:34:52.010Z,40.63
2023-01-17T14:37:29.040Z,40.55
2023-01-17T14:39:57.290Z,40.62
2023-01-17T14:42:28.456Z,39.81
2023-01-17T14:45:04.226Z,39.82
2023-01-17T14:47:34.969Z,39.73
2023-01-17T14:50:22.223Z,39.55
2023-01-17T14:53:07.396Z,39.88
2023-01-17T14:55:35.782Z,40.68
2023-01-17T14:58:04.017Z,41.16
2023-01-17T15:00:34.953Z,41.46
2023-01-17T15:03:04.093Z,41.94
2023-01-17T15:05:34.280Z,42.16
2023-01-17T15:08:02.706Z,42.52
2023-01-17T15:10:33.664Z,42.95
2023-01-17T15:13:10.114Z,43.58
2023-01-17T15:15:41.965Z,44.62
2023-01-17T15:18:19.145Z,45.19
2023-01-17T15:20:53.479Z,44.89
2023-01-17T15:23:23.783Z,44.77
2023-01-17T15:25:53.523Z,45.03
2023-01-17T15:28:21.611Z,45.35
2023-01-17T15:31:11.153Z,45.32
2023-01-17T15:33:41.322Z,45.61
2023-01-17T15:36:16.924Z,45.68
2023-01-17T15:38:51.548Z,45.92
2023-01-17T15:41:23.955Z,46.41
2023-01-17T15:43:57.460Z,47.14
2023-01-17T15:46:30.421Z,47.62
2023-01-17T15:49:17.381Z,47.00
2023-01-17T15:51:55.747Z,46.57
2023-01-17T15:54:41.506Z,47.32
2023-01-17T15:57:25.209Z,47.30
2023-01-17T15:59:56.262Z,47.60
2023-01-17T16:02:36.704Z,47.73
2023-01-17T16:05:33.349Z,47.68
2023-01-17T16:08:27.824Z,47.50
2023-01-17T16:10:59.210Z,47.82
2023-01-17T16:13:27.326Z,47.89
2023-01-17T16:15:55.528Z,47.91
2023-01-17T16:18:25.915Z,47.98
2023-01-17T16:20:59.683Z,48.31
2023-01-17T16:23:29.493Z,48.32
2023-01-17T16:25:57.639Z,48.48
2023-01-17T16:28:25.691Z,48.43
2023-01-17T16:30:54.017Z,48.66
2023-01-17T16:33:22.240Z,48.55
2023-01-17T16:35:51.256Z,48.64
2023-01-17T16:38:20.542Z,48.60
2023-01-17T16:40:50.039Z,48.58
2023-01-17T16:43:20.221Z,48.73
2023-01-17T16:45:50.533Z,49.08
2023-01-17T16:48:19.292Z,48.84
2023-01-17T16:50:50.708Z,48.75
2023-01-17T16:53:24.557Z,48.85
2023-01-17T16:55:56.377Z,48.89
2023-01-17T16:58:24.478Z,48.73
2023-01-17T17:00:52.615Z,49.04
2023-01-17T17:03:22.163Z,49.03
2023-01-17T17:05:56.777Z,49.48
2023-01-17T17:08:25.257Z,49.82
2023-01-17T17:10:54.687Z,50.23
2023-01-17T17:13:22.771Z,50.25
2023-01-17T17:15:51.116Z,50.75
2023-01-17T17:18:19.561Z,50.63
2023-01-17T17:20:49.549Z,50.60
2023-01-17T17:23:17.699Z,50.91
2023-01-17T17:25:45.859Z,50.88
2023-01-17T17:28:15.409Z,50.86
2023-01-17T17:30:43.474Z,51.13
2023-01-17T17:33:11.544Z,51.41
2023-01-17T17:35:39.580Z,51.14
2023-01-17T17:38:07.834Z,51.52
2023-01-17T17:40:36.198Z,52.14
2023-01-17T17:43:04.270Z,52.01
2023-01-17T17:45:33.869Z,52.16
2023-01-17T17:48:02.088Z,52.30
2023-01-17T17:50:30.179Z,52.37
2023-01-17T17:52:58.301Z,52.53
2023-01-17T17:55:28.721Z,52.75
2023-01-17T17:57:57.829Z,53.10
2023-01-17T18:00:27.275Z,53.19
2023-01-17T18:02:57.810Z,53.08
2023-01-17T18:05:25.944Z,53.46
2023-01-17T18:07:54.257Z,53.31
2023-01-17T18:10:22.725Z,53.43
2023-01-17T18:12:50.765Z,53.01
2023-01-17T18:15:20.797Z,53.39
2023-01-17T18:17:49.408Z,53.62
2023-01-17T18:20:19.008Z,53.28
2023-01-17T18:22:47.040Z,53.22
2023-01-17T18:25:15.399Z,53.36
2023-01-17T18:27:44.984Z,53.70
2023-01-17T18:30:13.805Z,53.44
2023-01-17T18:32:42.691Z,53.39
2023-01-17T18:35:11.134Z,53.34
2023-01-17T18:37:40.587Z,53.24
2023-01-17T18:40:09.616Z,53.55
2023-01-17T18:42:37.659Z,53.53
2023-01-17T18:45:06.642Z,53.56
2023-01-17T18:47:34.670Z,53.44
2023-01-17T18:50:02.690Z,53.56
2023-01-17T18:52:30.774Z,53.67
2023-01-17T18:55:00.174Z,54.46
2023-01-17T18:57:28.232Z,54.44
2023-01-17T18:59:57.194Z,54.31
2023-01-17T19:02:25.276Z,54.39
2023-01-17T19:04:53.513Z,54.57
2023-01-17T19:07:21.979Z,54.46
2023-01-17T19:09:50.049Z,54.67
2023-01-17T19:12:20.755Z,54.52
2023-01-17T19:14:48.867Z,54.62
2023-01-17T19:17:18.562Z,54.87
2023-01-17T19:19:46.643Z,54.76
2023-01-17T19:22:14.707Z,55.10
2023-01-17T19:24:42.869Z,55.66
2023-01-17T19:27:13.047Z,55.71
2023-01-17T19:29:42.485Z,55.68
2023-01-17T19:32:11.660Z,56.13
2023-01-17T19:34:39.699Z,55.90
2023-01-17T19:37:07.853Z,55.71
2023-01-17T19:39:35.943Z,55.79
2023-01-17T19:42:03.956Z,55.67
2023-01-17T19:44:31.984Z,55.84
2023-01-17T19:47:01.536Z,56.16
2023-01-17T19:49:29.686Z,56.11
2023-01-17T19:51:57.702Z,55.88
2023-01-17T19:54:26.017Z,55.61
2023-01-17T19:56:54.103Z,55.64
2023-01-17T19:59:22.663Z,55.34
2023-01-17T20:01:51.012Z,55.77
2023-01-17T20:04:21.122Z,55.69
2023-01-17T20:06:49.119Z,55.90
2023-01-17T20:09:17.153Z,55.95
2023-01-17T20:11:45.582Z,55.72
2023-01-17T20:14:16.544Z,55.50
2023-01-17T20:16:45.075Z,55.54
2023-01-17T20:19:13.146Z,55.58
2023-01-17T20:21:42.867Z,55.79
2023-01-17T20:24:13.544Z,55.53
2023-01-17T20:26:42.241Z,55.53
2023-01-17T20:29:14.299Z,55.51
2023-01-17T20:31:43.428Z,55.32
2023-01-17T20:34:12.948Z,55.67
2023-01-17T20:36:42.904Z,55.39
2023-01-17T20:39:13.792Z,55.38
2023-01-17T20:41:43.137Z,55.78
2023-01-17T20:44:13.960Z,55.57
2023-01-17T20:46:42.397Z,55.42
2023-01-17T20:49:14.828Z,55.79
2023-01-17T20:51:45.716Z,56.07
2023-01-17T20:54:15.495Z,55.72
2023-01-17T20:56:43.967Z,56.01
2023-01-17T20:59:15.162Z,56.31
2023-01-17T21:01:44.956Z,55.96
2023-01-17T21:04:14.776Z,55.65
2023-01-17T21:06:45.054Z,55.55
2023-01-17T21:09:15.076Z,55.65
2023-01-17T21:11:43.395Z,55.64
2023-01-17T21:14:11.505Z,55.92
2023-01-17T21:16:40.251Z,56.42
2023-01-17T21:19:11.948Z,56.03
2023-01-17T21:21:40.417Z,55.94
2023-01-17T21:24:15.091Z,55.74
2023-01-17T21:26:44.576Z,55.71
2023-01-17T21:29:13.428Z,55.55
2023-01-17T21:31:42.672Z,55.36
2023-01-17T21:34:13.807Z,55.33
2023-01-17T21:36:43.282Z,55.51
2023-01-17T21:39:15.797Z,55.36
2023-01-17T21:41:46.679Z,55.67
2023-01-17T21:44:19.276Z,55.86
2023-01-17T21:46:47.737Z,55.77
2023-01-17T21:49:17.234Z,55.64
2023-01-17T21:52:03.274Z,55.67
2023-01-17T21:54:50.630Z,55.89
2023-01-17T21:57:38.953Z,55.70
2023-01-17T22:00:08.453Z,55.59
2023-01-17T22:02:45.976Z,55.86
2023-01-17T22:05:16.430Z,55.82
2023-01-17T22:08:05.442Z,56.00
2023-01-17T22:10:44.518Z,55.88
2023-01-17T22:13:13.923Z,55.58
2023-01-17T22:15:42.235Z,55.50
2023-01-17T22:18:10.736Z,55.68
2023-01-17T22:20:41.423Z,55.42
2023-01-17T22:23:09.550Z,55.26
2023-01-17T22:25:38.963Z,55.20
2023-01-17T22:28:07.017Z,55.11
2023-01-17T22:30:35.050Z,55.36
2023-01-17T22:33:03.116Z,55.09
2023-01-17T22:35:31.183Z,55.08
2023-01-17T22:37:59.255Z,54.91
2023-01-17T22:40:27.871Z,55.08
2023-01-17T22:42:57.562Z,55.24
2023-01-17T22:45:26.069Z,54.98
2023-01-17T22:47:54.568Z,55.13
2023-01-17T22:50:23.388Z,55.31
2023-01-17T22:52:51.468Z,55.20
2023-01-17T22:55:19.505Z,55.10
2023-01-17T22:57:47.711Z,54.87
2023-01-17T23:00:17.949Z,54.58
2023-01-17T23:02:46.125Z,54.83
2023-01-17T23:05:14.264Z,54.84
2023-01-17T23:07:44.894Z,54.66
2023-01-17T23:10:34.001Z,54.84
2023-01-17T23:13:02.109Z,54.89
2023-01-17T23:15:49.106Z,55.01
2023-01-17T23:18:34.408Z,55.55
2023-01-17T23:21:02.433Z,55.18
2023-01-17T23:23:30.482Z,54.99
2023-01-17T23:26:01.304Z,55.00
2023-01-17T23:28:28.372Z,55.14
2023-01-17T23:31:03.038Z,54.83
2023-01-17T23:33:31.197Z,55.63
2023-01-17T23:35:59.228Z,55.33
2023-01-17T23:38:26.305Z,55.26
2023-01-17T23:41:08.582Z,55.43
2023-01-17T23:43:37.474Z,55.47
2023-01-17T23:46:11.671Z,55.58
2023-01-17T23:48:39.810Z,55.43
2023-01-17T23:51:08.327Z,55.50
2023-01-17T23:53:37.764Z,55.55
2023-01-17T23:56:10.681Z,55.49
2023-01-17T23:58:38.688Z,55.53
